createdAt,value
2022-10-12T00:00:02.468Z,16.70
2022-10-12T00:02:41.051Z,16.60
2022-10-12T00:05:08.742Z,16.80
2022-10-12T00:07:36.482Z,16.70
2022-10-12T00:10:04.807Z,16.60
2022-10-12T00:12:32.340Z,16.60
2022-10-12T00:14:59.584Z,16.70
2022-10-12T00:17:26.892Z,16.40
2022-10-12T00:19:54.237Z,16.40
2022-10-12T00:22:21.565Z,16.40
2022-10-12T00:24:48.898Z,16.30
2022-10-12T00:27:16.212Z,16.40
2022-10-12T00:29:43.534Z,16.40
2022-10-12T00:32:10.891Z,16.40
2022-10-12T00:34:38.176Z,16.50
2022-10-12T00:37:05.539Z,16.50
2022-10-12T00:39:32.846Z,16.60
2022-10-12T00:42:00.155Z,16.40
2022-10-12T00:44:34.575Z,16.40
2022-10-12T00:47:23.545Z,16.40
2022-10-12T00:49:59.270Z,16.20
2022-10-12T00:52:36.635Z,16.10
2022-10-12T00:55:05.363Z,16.10
2022-10-12T00:57:32.699Z,16.20
2022-10-12T01:00:05.395Z,16.20
2022-10-12T01:02:34.451Z,16.10
2022-10-12T01:05:02.960Z,16.10
2022-10-12T01:07:30.738Z,16.10
2022-10-12T01:09:58.180Z,16.10
2022-10-12T01:12:27.038Z,16.10
2022-10-12T01:14:54.624Z,16.10
2022-10-12T01:17:42.132Z,16.10
2022-10-12T01:20:34.243Z,16.20
2022-10-12T01:23:13.461Z,16.10
2022-10-12T01:26:13.190Z,16.10
2022-10-12T01:29:12.470Z,16.00
2022-10-12T01:31:57.051Z,16.00
2022-10-12T01:34:39.437Z,16.00
2022-10-12T01:37:26.300Z,16.00
2022-10-12T01:39:56.367Z,16.00
2022-10-12T01:42:32.086Z,16.00
2022-10-12T01:45:12.798Z,16.10
2022-10-12T01:47:42.902Z,16.10
2022-10-12T01:50:13.064Z,16.10
2022-10-12T01:52:49.255Z,16.20
2022-10-12T01:55:43.223Z,16.00
2022-10-12T01:58:34.776Z,16.00
2022-10-12T02:01:31.949Z,16.00
2022-10-12T02:04:26.194Z,16.00
2022-10-12T02:07:01.773Z,16.00
2022-10-12T02:09:32.491Z,16.00
2022-10-12T02:12:06.486Z,16.00
2022-10-12T02:14:47.096Z,16.00
2022-10-12T02:17:18.201Z,16.10
2022-10-12T02:19:59.696Z,16.10
2022-10-12T02:22:34.297Z,16.00
2022-10-12T02:25:06.677Z,16.00
2022-10-12T02:27:37.625Z,16.00
2022-10-12T02:30:06.376Z,15.90
2022-10-12T02:32:39.579Z,15.90
2022-10-12T02:35:20.303Z,15.90
2022-10-12T02:37:56.745Z,16.00
2022-10-12T02:40:39.062Z,16.00
2022-10-12T02:43:19.578Z,16.00
2022-10-12T02:45:48.564Z,16.00
2022-10-12T02:48:24.054Z,16.00
2022-10-12T02:50:55.535Z,16.00
2022-10-12T02:53:24.340Z,16.00
2022-10-12T02:55:54.555Z,16.00
2022-10-12T02:58:22.199Z,15.90
2022-10-12T03:00:49.534Z,15.90
2022-10-12T03:03:16.845Z,16.00
2022-10-12T03:05:44.503Z,15.90
2022-10-12T03:08:11.954Z,15.90
2022-10-12T03:10:39.315Z,15.80
2022-10-12T03:13:06.635Z,15.80
2022-10-12T03:15:33.937Z,15.70
2022-10-12T03:18:01.274Z,15.70
2022-10-12T03:20:28.768Z,15.60
2022-10-12T03:22:56.044Z,15.60
2022-10-12T03:25:23.374Z,15.60
2022-10-12T03:27:50.688Z,15.60
2022-10-12T03:30:18.077Z,15.50
2022-10-12T03:32:45.503Z,15.60
2022-10-12T03:35:12.790Z,15.60
2022-10-12T03:37:40.521Z,15.40
2022-10-12T03:40:08.972Z,15.40
2022-10-12T03:42:36.292Z,15.50
2022-10-12T03:45:03.844Z,15.40
2022-10-12T03:47:31.186Z,15.40
2022-10-12T03:49:58.481Z,15.40
2022-10-12T03:52:25.791Z,15.30
2022-10-12T03:54:53.117Z,15.40
2022-10-12T03:57:20.481Z,15.40
2022-10-12T03:59:47.734Z,15.40
2022-10-12T04:02:17.089Z,15.40
2022-10-12T04:04:44.755Z,15.30
2022-10-12T04:07:12.281Z,15.40
2022-10-12T04:09:39.790Z,15.40
2022-10-12T04:12:07.083Z,15.40
2022-10-12T04:14:34.405Z,15.40
2022-10-12T04:17:01.760Z,15.20
2022-10-12T04:19:29.083Z,15.30
2022-10-12T04:21:56.370Z,15.30
2022-10-12T04:24:23.702Z,15.20
2022-10-12T04:26:51.035Z,15.10
2022-10-12T04:29:18.378Z,15.10
2022-10-12T04:31:45.774Z,15.20
2022-10-12T04:34:13.266Z,15.30
2022-10-12T04:36:40.622Z,15.40
2022-10-12T04:39:08.322Z,15.20
2022-10-12T04:41:35.650Z,15.30
2022-10-12T04:44:03.024Z,15.30
2022-10-12T04:46:30.448Z,15.20
2022-10-12T04:48:57.947Z,15.20
2022-10-12T04:51:25.377Z,15.20
2022-10-12T04:53:52.719Z,15.10
2022-10-12T04:56:20.200Z,15.10
2022-10-12T04:58:47.536Z,15.20
2022-10-12T05:01:14.945Z,15.10
2022-10-12T05:03:42.381Z,15.30
2022-10-12T05:06:09.758Z,15.10
2022-10-12T05:08:37.045Z,15.10
2022-10-12T05:11:04.790Z,15.10
2022-10-12T05:13:32.342Z,15.20
2022-10-12T05:15:59.626Z,15.20
2022-10-12T05:18:27.030Z,15.20
2022-10-12T05:20:57.020Z,15.30
2022-10-12T05:23:24.661Z,15.40
2022-10-12T05:25:54.048Z,15.40
2022-10-12T05:28:21.444Z,15.40
2022-10-12T05:30:52.960Z,15.40
2022-10-12T05:33:20.256Z,15.40
2022-10-12T05:35:52.128Z,15.40
2022-10-12T05:38:22.015Z,15.40
2022-10-12T05:40:49.424Z,15.40
2022-10-12T05:43:16.829Z,15.30
2022-10-12T05:45:44.286Z,15.10
2022-10-12T05:48:11.573Z,15.20
2022-10-12T05:50:38.900Z,15.10
2022-10-12T05:53:06.284Z,15.30
2022-10-12T05:55:33.656Z,15.40
2022-10-12T05:58:01.026Z,15.50
2022-10-12T06:00:28.547Z,15.50
2022-10-12T06:02:56.110Z,15.50
2022-10-12T06:05:23.452Z,15.50
2022-10-12T06:07:50.810Z,15.60
2022-10-12T06:10:18.151Z,15.40
2022-10-12T06:12:45.472Z,15.40
2022-10-12T06:15:12.770Z,15.40
2022-10-12T06:17:40.097Z,15.40
2022-10-12T06:20:07.851Z,15.40
2022-10-12T06:22:35.413Z,15.50
2022-10-12T06:25:03.151Z,15.60
2022-10-12T06:27:30.489Z,15.70
2022-10-12T06:29:58.892Z,15.80
2022-10-12T06:32:26.200Z,16.10
2022-10-12T06:34:53.499Z,16.30
2022-10-12T06:37:48.107Z,16.50
2022-10-12T06:40:08.747Z,16.30
2022-10-12T06:42:36.418Z,16.60
2022-10-12T06:45:06.915Z,16.90
2022-10-12T06:47:34.336Z,17.10
2022-10-12T06:50:01.646Z,17.30
2022-10-12T06:52:29.068Z,17.00
2022-10-12T06:54:56.382Z,17.40
2022-10-12T06:57:23.709Z,17.70
2022-10-12T06:59:51.125Z,17.90
2022-10-12T07:02:18.712Z,17.80
2022-10-12T07:04:53.069Z,17.70
2022-10-12T07:07:20.377Z,17.80
2022-10-12T07:09:47.759Z,17.70
2022-10-12T07:12:15.120Z,17.70
2022-10-12T07:14:42.456Z,17.80
2022-10-12T07:17:09.924Z,17.90
2022-10-12T07:19:37.242Z,18.00
2022-10-12T07:22:04.591Z,18.30
2022-10-12T07:24:40.930Z,18.50
2022-10-12T07:27:10.020Z,18.60
2022-10-12T07:29:38.749Z,18.90
2022-10-12T07:32:07.460Z,18.90
2022-10-12T07:34:34.790Z,19.20
2022-10-12T07:37:02.707Z,19.30
2022-10-12T07:39:30.073Z,19.40
2022-10-12T07:41:57.584Z,19.60
2022-10-12T07:44:24.986Z,19.50
2022-10-12T07:46:52.439Z,19.50
2022-10-12T07:49:19.993Z,19.40
2022-10-12T07:51:47.461Z,19.40
2022-10-12T07:54:19.847Z,19.40
2022-10-12T07:56:48.788Z,19.80
2022-10-12T07:59:16.285Z,20.10
2022-10-12T08:01:43.664Z,20.30
2022-10-12T08:04:11.022Z,20.40
2022-10-12T08:06:43.866Z,20.30
2022-10-12T08:09:11.201Z,20.50
2022-10-12T08:11:40.257Z,20.70
2022-10-12T08:14:13.986Z,20.90
2022-10-12T08:16:42.884Z,21.20
2022-10-12T08:19:10.504Z,21.50
2022-10-12T08:21:38.029Z,21.80
2022-10-12T08:24:05.686Z,22.30
2022-10-12T08:26:33.336Z,22.20
2022-10-12T08:29:03.004Z,22.30
2022-10-12T08:31:30.417Z,22.50
2022-10-12T08:33:58.815Z,23.10
2022-10-12T08:36:26.482Z,24.00
2022-10-12T08:38:55.288Z,25.00
2022-10-12T08:41:33.277Z,25.60
2022-10-12T08:44:22.370Z,26.80
2022-10-12T08:46:55.382Z,27.00
2022-10-12T08:49:28.171Z,27.10
2022-10-12T08:51:59.029Z,28.00
2022-10-12T08:54:31.975Z,28.30
2022-10-12T08:56:59.332Z,28.70
2022-10-12T08:59:28.429Z,28.90
2022-10-12T09:02:21.967Z,29.10
2022-10-12T09:05:01.425Z,28.90
2022-10-12T09:07:45.768Z,29.60
2022-10-12T09:10:46.439Z,30.20
2022-10-12T09:13:32.416Z,29.80
2022-10-12T09:16:14.477Z,30.50
2022-10-12T09:18:46.218Z,30.90
2022-10-12T09:21:17.610Z,30.60
2022-10-12T09:23:45.750Z,31.00
2022-10-12T09:26:20.301Z,29.50
2022-10-12T09:28:58.426Z,29.80
2022-10-12T09:32:03.267Z,30.40
2022-10-12T09:34:30.900Z,30.40
2022-10-12T09:36:58.460Z,30.30
2022-10-12T09:39:40.767Z,30.50
2022-10-12T09:42:10.256Z,29.40
2022-10-12T09:44:49.834Z,29.20
2022-10-12T09:47:29.566Z,29.10
2022-10-12T09:50:02.376Z,28.40
2022-10-12T09:52:31.388Z,28.20
2022-10-12T09:55:23.341Z,28.60
2022-10-12T09:57:57.696Z,29.70
2022-10-12T10:00:32.325Z,29.50
2022-10-12T10:03:00.842Z,29.40
2022-10-12T10:05:30.970Z,29.30
2022-10-12T10:08:19.406Z,30.10
2022-10-12T10:10:50.712Z,28.90
2022-10-12T10:13:19.178Z,27.70
2022-10-12T10:15:51.990Z,27.00
2022-10-12T10:19:05.714Z,27.20
2022-10-12T10:21:38.473Z,28.40
2022-10-12T10:24:17.467Z,27.50
2022-10-12T10:27:00.324Z,28.10
2022-10-12T10:29:37.494Z,28.00
2022-10-12T10:32:27.373Z,28.80
2022-10-12T10:35:11.681Z,28.30
2022-10-12T10:37:51.480Z,27.70
2022-10-12T10:40:31.942Z,26.90
2022-10-12T10:43:09.548Z,26.50
2022-10-12T10:45:51.666Z,27.70
2022-10-12T10:48:32.355Z,26.50
2022-10-12T10:51:07.286Z,26.70
2022-10-12T10:53:49.606Z,27.20
2022-10-12T10:56:21.851Z,26.60
2022-10-12T10:58:57.856Z,25.90
2022-10-12T11:01:45.708Z,25.30
2022-10-12T11:04:22.907Z,25.50
2022-10-12T11:07:01.978Z,25.70
2022-10-12T11:09:38.685Z,26.00
2022-10-12T11:12:13.178Z,25.30
2022-10-12T11:14:51.785Z,26.20
2022-10-12T11:17:25.455Z,26.10
2022-10-12T11:20:06.335Z,25.50
2022-10-12T11:22:49.522Z,25.80
2022-10-12T11:25:49.268Z,26.50
2022-10-12T11:28:17.237Z,25.50
2022-10-12T11:30:51.778Z,25.40
2022-10-12T11:33:26.914Z,25.60
2022-10-12T11:35:56.813Z,26.50
2022-10-12T11:38:42.102Z,25.80
2022-10-12T11:44:17.934Z,25.80
2022-10-12T11:47:00.815Z,26.00
2022-10-12T11:50:06.745Z,25.40
2022-10-12T11:52:54.599Z,26.30
2022-10-12T11:55:28.279Z,26.30
2022-10-12T11:58:00.348Z,26.10
2022-10-12T12:00:55.343Z,25.50
2022-10-12T12:03:47.531Z,25.30
2022-10-12T12:06:30.164Z,25.40
2022-10-12T12:09:06.004Z,25.50
2022-10-12T12:11:34.884Z,25.60
2022-10-12T12:14:20.876Z,25.40
2022-10-12T12:16:49.628Z,25.50
2022-10-12T12:19:38.544Z,25.30
2022-10-12T12:22:37.780Z,25.60
2022-10-12T12:25:08.548Z,25.90
2022-10-12T12:27:38.624Z,26.30
2022-10-12T12:30:29.192Z,26.00
2022-10-12T12:33:17.829Z,26.40
2022-10-12T12:35:55.461Z,26.20
2022-10-12T12:38:34.574Z,26.40
2022-10-12T12:41:24.699Z,26.30
2022-10-12T12:43:56.244Z,25.90
2022-10-12T12:46:45.628Z,26.30
2022-10-12T12:49:40.492Z,26.20
2022-10-12T12:52:19.016Z,26.20
2022-10-12T12:55:11.239Z,25.40
2022-10-12T12:57:38.611Z,25.60
2022-10-12T13:00:21.776Z,25.50
2022-10-12T13:03:08.141Z,25.60
2022-10-12T13:05:57.147Z,25.80
2022-10-12T13:08:37.111Z,25.60
2022-10-12T13:11:31.265Z,25.40
2022-10-12T13:14:08.208Z,25.00
2022-10-12T13:19:47.134Z,25.50
2022-10-12T13:22:26.108Z,25.60
2022-10-12T13:25:07.114Z,25.40
2022-10-12T13:27:42.368Z,25.30
2022-10-12T13:30:30.712Z,25.40
2022-10-12T13:33:10.068Z,25.30
2022-10-12T13:35:48.742Z,25.40
2022-10-12T13:38:16.069Z,25.40
2022-10-12T13:41:13.450Z,25.00
2022-10-12T13:43:59.115Z,25.00
2022-10-12T13:46:40.869Z,25.00
2022-10-12T13:49:20.274Z,25.00
2022-10-12T13:51:53.474Z,25.20
2022-10-12T13:54:24.668Z,25.20
2022-10-12T13:57:02.047Z,25.10
2022-10-12T13:59:36.136Z,24.90
2022-10-12T14:02:04.066Z,25.00
2022-10-12T14:04:35.446Z,25.10
2022-10-12T14:07:06.278Z,25.30
2022-10-12T14:09:44.496Z,25.20
2022-10-12T14:12:12.822Z,24.90
2022-10-12T14:14:42.862Z,24.90
2022-10-12T14:17:18.103Z,24.80
2022-10-12T14:19:55.189Z,24.80
2022-10-12T14:22:31.191Z,25.40
2022-10-12T14:25:11.971Z,25.10
2022-10-12T14:27:40.360Z,24.60
2022-10-12T14:30:17.450Z,24.40
2022-10-12T14:32:46.472Z,24.40
2022-10-12T14:35:24.860Z,24.40
2022-10-12T14:37:53.789Z,24.30
2022-10-12T14:40:24.475Z,24.30
2022-10-12T14:43:04.036Z,24.20
2022-10-12T14:45:32.682Z,24.10
2022-10-12T14:48:01.475Z,24.20
2022-10-12T14:50:31.542Z,24.10
2022-10-12T14:53:02.670Z,24.10
2022-10-12T14:55:33.790Z,24.10
2022-10-12T14:58:01.610Z,24.40
2022-10-12T15:00:32.679Z,24.20
2022-10-12T15:03:00.450Z,24.20
2022-10-12T15:05:29.319Z,24.40
2022-10-12T15:07:56.642Z,24.40
2022-10-12T15:10:24.926Z,24.40
2022-10-12T15:12:52.930Z,24.40
2022-10-12T15:15:42.861Z,24.30
2022-10-12T15:18:10.362Z,24.10
2022-10-12T15:20:39.049Z,24.20
2022-10-12T15:23:06.845Z,24.10
2022-10-12T15:25:54.306Z,24.10
2022-10-12T15:28:23.161Z,24.20
2022-10-12T15:31:16.608Z,23.90
2022-10-12T15:33:39.200Z,23.90
2022-10-12T15:36:07.169Z,23.90
2022-10-12T15:38:34.799Z,23.00
2022-10-12T15:41:02.690Z,22.70
2022-10-12T15:43:31.416Z,22.70
2022-10-12T15:45:59.818Z,22.70
2022-10-12T15:48:28.384Z,22.60
2022-10-12T15:50:55.937Z,22.50
2022-10-12T15:53:26.227Z,22.40
2022-10-12T15:55:55.095Z,22.70
2022-10-12T15:58:22.900Z,22.40
2022-10-12T16:00:50.435Z,22.60
2022-10-12T16:03:25.696Z,22.60
2022-10-12T16:05:54.255Z,22.60
2022-10-12T16:08:21.590Z,22.50
2022-10-12T16:10:49.489Z,22.30
2022-10-12T16:13:17.513Z,22.30
2022-10-12T16:15:44.869Z,22.30
2022-10-12T16:18:15.522Z,22.20
2022-10-12T16:20:46.650Z,22.20
2022-10-12T16:23:23.041Z,22.10
2022-10-12T16:25:50.380Z,22.20
2022-10-12T16:28:18.049Z,22.10
2022-10-12T16:30:45.575Z,22.20
2022-10-12T16:33:13.027Z,22.10
2022-10-12T16:35:41.103Z,22.10
2022-10-12T16:38:09.400Z,22.10
2022-10-12T16:40:39.193Z,22.10
2022-10-12T16:43:06.667Z,22.00
2022-10-12T16:45:34.140Z,22.10
2022-10-12T16:48:01.722Z,22.00
2022-10-12T16:50:29.275Z,22.00
2022-10-12T16:52:56.618Z,22.20
2022-10-12T16:55:24.237Z,22.00
2022-10-12T16:57:51.714Z,22.10
2022-10-12T17:00:19.938Z,22.00
2022-10-12T17:02:48.125Z,21.90
2022-10-12T17:05:15.690Z,21.90
2022-10-12T17:07:43.101Z,21.80
2022-10-12T17:10:10.597Z,21.80
2022-10-12T17:12:38.091Z,21.70
2022-10-12T17:15:05.866Z,21.70
2022-10-12T17:17:33.229Z,21.60
2022-10-12T17:20:03.538Z,21.60
2022-10-12T17:22:30.814Z,21.50
2022-10-12T17:24:58.249Z,21.60
2022-10-12T17:27:29.876Z,21.40
2022-10-12T17:29:59.680Z,21.40
2022-10-12T17:32:27.217Z,21.30
2022-10-12T17:34:54.531Z,21.40
2022-10-12T17:37:22.087Z,21.30
2022-10-12T17:39:50.411Z,21.30
2022-10-12T17:42:20.461Z,21.20
2022-10-12T17:44:48.165Z,21.10
2022-10-12T17:47:15.933Z,21.10
2022-10-12T17:49:43.523Z,21.00
2022-10-12T17:52:12.086Z,20.90
2022-10-12T17:54:39.351Z,20.90
2022-10-12T17:57:06.621Z,21.00
2022-10-12T17:59:34.046Z,20.90
2022-10-12T18:02:01.366Z,20.90
2022-10-12T18:04:28.716Z,20.90
2022-10-12T18:06:55.969Z,20.90
2022-10-12T18:09:23.549Z,20.80
2022-10-12T18:11:50.881Z,20.80
2022-10-12T18:14:19.010Z,20.80
2022-10-12T18:16:46.407Z,20.80
2022-10-12T18:19:13.892Z,20.70
2022-10-12T18:21:41.257Z,20.70
2022-10-12T18:24:16.053Z,20.70
2022-10-12T18:26:46.394Z,20.60
2022-10-12T18:29:15.944Z,20.50
2022-10-12T18:31:43.226Z,20.40
2022-10-12T18:34:10.884Z,20.50
2022-10-12T18:36:40.100Z,20.40
2022-10-12T18:39:07.523Z,20.40
2022-10-12T18:41:34.842Z,20.30
2022-10-12T18:44:03.625Z,20.30
2022-10-12T18:46:33.585Z,20.40
2022-10-12T18:49:05.022Z,20.30
2022-10-12T18:51:38.258Z,20.30
2022-10-12T18:54:06.817Z,20.20
2022-10-12T18:56:36.246Z,20.20
2022-10-12T18:59:04.575Z,20.20
2022-10-12T19:01:33.941Z,20.20
2022-10-12T19:04:02.368Z,20.10
2022-10-12T19:06:33.450Z,20.00
2022-10-12T19:09:01.875Z,20.00
2022-10-12T19:11:29.863Z,20.00
2022-10-12T19:14:02.591Z,19.90
2022-10-12T19:16:32.076Z,19.80
2022-10-12T19:19:04.117Z,19.80
2022-10-12T19:21:31.545Z,19.80
2022-10-12T19:24:03.042Z,19.80
2022-10-12T19:26:30.504Z,19.80
2022-10-12T19:28:58.572Z,19.80
2022-10-12T19:31:31.754Z,19.70
2022-10-12T19:34:01.843Z,19.70
2022-10-12T19:36:30.070Z,19.70
2022-10-12T19:39:02.866Z,19.70
2022-10-12T19:41:30.516Z,19.60
2022-10-12T19:43:59.605Z,19.50
2022-10-12T19:46:27.903Z,19.40
2022-10-12T19:48:57.283Z,19.30
2022-10-12T19:51:26.327Z,19.10
2022-10-12T19:53:55.256Z,19.10
2022-10-12T19:56:23.378Z,19.10
2022-10-12T19:58:52.374Z,19.00
2022-10-12T20:01:22.494Z,19.00
2022-10-12T20:03:50.899Z,19.00
2022-10-12T20:06:20.566Z,18.80
2022-10-12T20:08:48.505Z,18.90
2022-10-12T20:11:21.424Z,18.90
2022-10-12T20:13:51.732Z,18.90
2022-10-12T20:16:20.032Z,18.80
2022-10-12T20:18:47.610Z,18.60
2022-10-12T20:21:18.933Z,18.60
2022-10-12T20:23:46.883Z,18.70
2022-10-12T20:26:18.309Z,18.70
2022-10-12T20:28:45.938Z,18.60
2022-10-12T20:31:13.691Z,18.50
2022-10-12T20:33:41.281Z,18.50
2022-10-12T20:36:10.710Z,18.40
2022-10-12T20:38:38.822Z,18.30
2022-10-12T20:41:08.924Z,18.30
2022-10-12T20:43:40.349Z,18.30
2022-10-12T20:46:13.575Z,18.30
2022-10-12T20:48:42.012Z,18.40
2022-10-12T20:51:17.847Z,18.30
2022-10-12T20:53:45.235Z,18.20
2022-10-12T20:56:12.550Z,18.20
2022-10-12T20:58:39.915Z,18.20
2022-10-12T21:01:10.505Z,18.00
2022-10-12T21:03:38.598Z,18.00
2022-10-12T21:06:07.954Z,17.90
2022-10-12T21:08:36.060Z,18.00
2022-10-12T21:11:04.254Z,18.10
2022-10-12T21:13:39.118Z,18.00
2022-10-12T21:16:07.257Z,18.00
2022-10-12T21:18:38.002Z,17.90
2022-10-12T21:21:11.562Z,17.80
2022-10-12T21:23:41.097Z,17.90
2022-10-12T21:26:19.153Z,17.80
2022-10-12T21:28:46.791Z,17.70
2022-10-12T21:31:14.870Z,17.60
2022-10-12T21:33:42.637Z,17.60
2022-10-12T21:36:17.191Z,17.70
2022-10-12T21:38:44.657Z,17.60
2022-10-12T21:41:13.697Z,17.50
2022-10-12T21:43:42.349Z,17.50
2022-10-12T21:46:12.346Z,17.40
2022-10-12T21:48:40.015Z,17.50
2022-10-12T21:51:09.111Z,17.60
2022-10-12T21:53:37.440Z,17.50
2022-10-12T21:56:19.079Z,17.60
2022-10-12T21:58:47.361Z,17.60
2022-10-12T22:01:26.764Z,17.50
2022-10-12T22:03:59.423Z,17.40
2022-10-12T22:06:28.323Z,17.50
2022-10-12T22:08:59.744Z,17.50
2022-10-12T22:11:30.487Z,17.60
2022-10-12T22:14:11.546Z,17.50
2022-10-12T22:16:39.055Z,17.30
2022-10-12T22:19:08.048Z,17.50
2022-10-12T22:21:36.383Z,17.30
2022-10-12T22:24:04.057Z,17.20
2022-10-12T22:26:31.861Z,17.20
2022-10-12T22:29:01.422Z,17.30
2022-10-12T22:31:28.924Z,17.30
2022-10-12T22:33:56.513Z,17.20
2022-10-12T22:36:24.133Z,17.20
2022-10-12T22:38:51.485Z,17.20
2022-10-12T22:41:23.049Z,17.20
2022-10-12T22:43:52.633Z,17.20
2022-10-12T22:46:21.589Z,17.20
2022-10-12T22:48:49.476Z,17.10
2022-10-12T22:51:21.198Z,17.10
2022-10-12T22:53:48.500Z,17.00
2022-10-12T22:56:17.769Z,17.00
2022-10-12T22:58:46.683Z,17.00
2022-10-12T23:01:16.603Z,17.00
2022-10-12T23:03:44.122Z,16.90
2022-10-12T23:06:12.589Z,17.00
2022-10-12T23:08:40.256Z,17.00
2022-10-12T23:11:20.201Z,17.00
2022-10-12T23:13:48.182Z,16.80
2022-10-12T23:16:27.299Z,16.80
2022-10-12T23:19:00.117Z,16.80
2022-10-12T23:21:29.352Z,16.80
2022-10-12T23:23:57.761Z,16.90
2022-10-12T23:26:26.668Z,17.00
2022-10-12T23:28:54.863Z,17.00
2022-10-12T23:31:25.031Z,16.90
2022-10-12T23:34:01.178Z,16.90
2022-10-12T23:36:28.543Z,16.60
2022-10-12T23:38:56.148Z,16.70
2022-10-12T23:41:23.557Z,16.70
2022-10-12T23:43:50.917Z,16.70
2022-10-12T23:46:18.271Z,16.70
2022-10-12T23:48:45.616Z,16.70
2022-10-12T23:51:13.096Z,16.70
2022-10-12T23:53:42.609Z,16.60
2022-10-12T23:56:10.360Z,16.70
2022-10-12T23:58:37.801Z,16.70
